This is the latest recevied weather packets stored in our database for station/object DL2DHM-13. If no packets are shown the sender has not sent any weather packets the latest 10 day(s).
| Time | Temp. | Humidity | Pressure | Rain* | Wind** | Luminosity | Snow |
|---|---|---|---|---|---|---|---|
| 1777506920 | 5° C | 69% | 1028.9 hPa | 0 mm | - | 0 W/m² | - |
| 1777506620 | 4.44° C | 70% | 1029 hPa | 0 mm | - | 0 W/m² | - |
| 1777505116 | 4.44° C | 71% | 1029.1 hPa | 0 mm | - | 0 W/m² | - |
| 1777504214 | 4.44° C | 71% | 1029 hPa | 0 mm | - | 0 W/m² | - |
| 1777503312 | 5° C | 70% | 1028.9 hPa | 0 mm | - | 0 W/m² | - |
| 1777502711 | 5° C | 70% | 1028.9 hPa | 0 mm | - | 0 W/m² | - |
| 1777499702 | 6.11° C | 67% | 1028.6 hPa | 0 mm | - | 0 W/m² | - |
| 1777497365 | 6.67° C | 63% | 1028.4 hPa | 0 mm | - | 0 W/m² | - |
| 1777497060 | 7.22° C | 63% | 1028.4 hPa | 0 mm | - | 0 W/m² | - |
| 1777494360 | 8.33° C | 58% | 1028.2 hPa | 0 mm | - | 0 W/m² | - |
| 1777492854 | 9.44° C | 54% | 1027.9 hPa | 0 mm | - | 0 W/m² | - |
| 1777491964 | 10° C | 52% | 1027.9 hPa | 0 mm | - | 0 W/m² | - |
| 1777487144 | 12.78° C | 43% | 1027 hPa | 0 mm | - | 12 W/m² | - |
| 1777486244 | 12.78° C | 42% | 1026.9 hPa | 0 mm | - | 21 W/m² | - |
| 1777485042 | 13.33° C | 40% | 1026.7 hPa | 0 mm | - | 25 W/m² | - |
| 1777484444 | 13.89° C | 40% | 1026.7 hPa | 0 mm | - | 26 W/m² | - |
| 1777484141 | 13.89° C | 39% | 1026.7 hPa | 0 mm | - | 26 W/m² | - |
| 1777482340 | 14.44° C | 38% | 1026.4 hPa | 0 mm | - | 93 W/m² | - |
| 1777480236 | 15.56° C | 35% | 1026.4 hPa | 0 mm | - | 297 W/m² | - |
| 1777471822 | 16.11° C | 33% | 1026.8 hPa | 0 mm | - | 619 W/m² | - |
| 1777469422 | 15.56° C | 35% | 1026.5 hPa | 0 mm | - | 682 W/m² | - |
| 1777468823 | 16.11° C | 36% | 1026.7 hPa | 0 mm | - | 696 W/m² | - |
| 1777467922 | 15.56° C | 34% | 1026.7 hPa | 0 mm | - | 717 W/m² | - |
| 1777464314 | 15° C | 34% | 1026.8 hPa | 0 mm | - | 772 W/m² | - |
| 1777462216 | 15° C | 37% | 1026.9 hPa | 0 mm | - | 782 W/m² | - |
* Rain latest hour (hover to see other rain measurements)
** Current wind speed in m/s (hover to see current wind gust speed)